createdAt,value
2018-07-10T00:00:23.289Z,19.66
2018-07-10T00:01:23.278Z,19.71
2018-07-10T00:02:23.336Z,19.68
2018-07-10T00:03:23.258Z,19.66
2018-07-10T00:04:23.245Z,19.68
2018-07-10T00:05:23.236Z,19.54
2018-07-10T00:06:23.230Z,19.61
2018-07-10T00:07:23.277Z,19.54
2018-07-10T00:08:23.209Z,19.61
2018-07-10T00:09:23.189Z,19.51
2018-07-10T00:10:23.181Z,19.50
2018-07-10T00:11:23.257Z,19.50
2018-07-10T00:12:23.287Z,19.56
2018-07-10T00:13:23.158Z,19.48
2018-07-10T00:14:23.136Z,19.46
2018-07-10T00:15:23.141Z,19.50
2018-07-10T00:16:23.117Z,19.44
2018-07-10T00:17:23.172Z,19.51
2018-07-10T00:18:23.678Z,19.47
2018-07-10T00:19:23.089Z,19.48
2018-07-10T00:20:23.081Z,19.50
2018-07-10T00:21:23.067Z,19.40
2018-07-10T00:22:23.120Z,19.39
2018-07-10T00:23:23.044Z,19.39
2018-07-10T00:24:23.034Z,19.36
2018-07-10T00:25:23.022Z,19.32
2018-07-10T00:26:23.025Z,19.33
2018-07-10T00:27:23.117Z,19.26
2018-07-10T00:28:22.992Z,19.26
2018-07-10T00:29:22.983Z,19.23
2018-07-10T00:30:22.981Z,19.26
2018-07-10T00:31:22.956Z,19.21
2018-07-10T00:32:23.023Z,19.18
2018-07-10T00:33:22.937Z,19.13
2018-07-10T00:34:22.931Z,19.08
2018-07-10T00:35:22.914Z,19.16
2018-07-10T00:36:22.911Z,19.07
2018-07-10T00:37:22.965Z,19.11
2018-07-10T00:38:22.890Z,19.11
2018-07-10T00:39:23.668Z,19.02
2018-07-10T00:40:22.867Z,19.10
2018-07-10T00:41:22.859Z,18.99
2018-07-10T00:42:22.906Z,19.08
2018-07-10T00:43:22.829Z,19.02
2018-07-10T00:44:22.826Z,19.10
2018-07-10T00:45:22.808Z,19.07
2018-07-10T00:46:22.799Z,19.02
2018-07-10T00:47:23.675Z,19.04
2018-07-10T00:48:22.779Z,19.04
2018-07-10T00:49:22.768Z,19.00
2018-07-10T00:50:22.760Z,19.06
2018-07-10T00:51:22.744Z,19.00
2018-07-10T00:52:22.804Z,18.99
2018-07-10T00:53:22.722Z,19.02
2018-07-10T00:54:22.718Z,19.04
2018-07-10T00:55:22.705Z,18.94
2018-07-10T00:56:22.696Z,18.94
2018-07-10T00:57:22.744Z,18.92
2018-07-10T00:58:22.670Z,19.00
2018-07-10T00:59:22.658Z,18.87
2018-07-10T01:00:23.172Z,18.87
2018-07-10T01:01:22.636Z,18.85
2018-07-10T01:02:22.715Z,18.80
2018-07-10T01:03:22.616Z,18.80
2018-07-10T01:04:22.605Z,18.81
2018-07-10T01:05:22.595Z,18.66
2018-07-10T01:06:22.584Z,18.85
2018-07-10T01:07:22.575Z,18.72
2018-07-10T01:08:22.630Z,18.70
2018-07-10T01:09:22.558Z,18.70
2018-07-10T01:10:22.545Z,18.69
2018-07-10T01:11:22.531Z,18.67
2018-07-10T01:12:22.520Z,18.72
2018-07-10T01:13:22.584Z,18.66
2018-07-10T01:14:22.498Z,18.48
2018-07-10T01:15:22.489Z,18.58
2018-07-10T01:16:22.496Z,18.58
2018-07-10T01:17:22.473Z,18.50
2018-07-10T01:18:22.525Z,18.50
2018-07-10T01:19:22.451Z,18.50
2018-07-10T01:20:22.437Z,18.48
2018-07-10T01:21:23.168Z,18.37
2018-07-10T01:22:22.417Z,18.36
2018-07-10T01:23:22.478Z,18.33
2018-07-10T01:24:22.392Z,18.33
2018-07-10T01:25:22.382Z,18.29
2018-07-10T01:26:22.371Z,18.26
2018-07-10T01:27:22.381Z,18.17
2018-07-10T01:28:22.426Z,18.14
2018-07-10T01:29:22.407Z,18.23
2018-07-10T01:30:22.339Z,18.11
2018-07-10T01:31:22.326Z,18.14
2018-07-10T01:32:22.310Z,18.17
2018-07-10T01:33:22.370Z,18.18
2018-07-10T01:34:22.304Z,18.02
2018-07-10T01:35:22.282Z,18.18
2018-07-10T01:36:22.298Z,18.14
2018-07-10T01:37:22.273Z,18.14
2018-07-10T01:38:22.744Z,18.03
2018-07-10T01:39:22.240Z,18.00
2018-07-10T01:40:22.229Z,18.08
2018-07-10T01:41:22.216Z,17.96
2018-07-10T01:42:23.240Z,17.99
2018-07-10T01:43:22.326Z,17.92
2018-07-10T01:44:22.196Z,17.96
2018-07-10T01:45:22.190Z,17.92
2018-07-10T01:46:22.165Z,17.90
2018-07-10T01:47:22.152Z,17.87
2018-07-10T01:48:22.215Z,17.92
2018-07-10T01:49:22.138Z,17.84
2018-07-10T01:50:22.132Z,17.84
2018-07-10T01:51:22.113Z,17.86
2018-07-10T01:52:22.102Z,17.86
2018-07-10T01:53:22.166Z,17.84
2018-07-10T01:54:22.083Z,17.84
2018-07-10T01:55:22.076Z,17.79
2018-07-10T01:56:22.074Z,17.74
2018-07-10T01:57:22.050Z,17.74
2018-07-10T01:58:22.118Z,17.78
2018-07-10T01:59:22.032Z,17.75
2018-07-10T02:00:22.035Z,17.68
2018-07-10T02:01:22.003Z,17.77
2018-07-10T02:02:22.004Z,17.64
2018-07-10T02:03:22.232Z,17.68
2018-07-10T02:04:21.973Z,17.62
2018-07-10T02:05:21.966Z,17.74
2018-07-10T02:06:21.971Z,17.70
2018-07-10T02:07:21.942Z,17.68
2018-07-10T02:08:21.996Z,17.59
2018-07-10T02:09:21.936Z,17.70
2018-07-10T02:10:30.068Z,17.66
2018-07-10T02:11:30.042Z,17.59
2018-07-10T02:12:22.019Z,17.55
2018-07-10T02:13:21.945Z,17.62
2018-07-10T02:14:21.883Z,17.66
2018-07-10T02:15:21.898Z,17.70
2018-07-10T02:16:21.847Z,17.62
2018-07-10T02:17:21.858Z,17.52
2018-07-10T02:18:31.360Z,17.55
2018-07-10T02:19:29.393Z,17.46
2018-07-10T02:20:29.923Z,17.41
2018-07-10T02:21:29.313Z,17.40
2018-07-10T02:23:31.480Z,17.31
2018-07-10T02:24:31.596Z,17.31
2018-07-10T02:25:31.392Z,17.28
2018-07-10T02:26:31.390Z,17.31
2018-07-10T02:27:31.377Z,17.34
2018-07-10T02:28:31.424Z,17.33
2018-07-10T02:29:31.350Z,17.30
2018-07-10T02:30:31.340Z,17.30
2018-07-10T02:31:31.336Z,17.34
2018-07-10T02:32:31.320Z,17.23
2018-07-10T02:33:31.396Z,17.22
2018-07-10T02:34:31.300Z,17.28
2018-07-10T02:35:31.288Z,17.23
2018-07-10T02:36:31.280Z,17.26
2018-07-10T02:37:31.273Z,17.30
2018-07-10T02:38:31.707Z,17.22
2018-07-10T02:39:31.248Z,17.28
2018-07-10T02:40:31.239Z,17.26
2018-07-10T02:41:31.231Z,17.19
2018-07-10T02:42:31.215Z,17.22
2018-07-10T02:43:31.715Z,17.08
2018-07-10T02:44:31.192Z,17.19
2018-07-10T02:45:31.182Z,17.12
2018-07-10T02:46:31.167Z,17.03
2018-07-10T02:47:31.159Z,17.04
2018-07-10T02:48:31.223Z,17.04
2018-07-10T02:49:31.139Z,17.08
2018-07-10T02:50:31.126Z,17.11
2018-07-10T02:51:31.115Z,17.08
2018-07-10T02:52:31.104Z,17.01
2018-07-10T02:53:31.237Z,17.06
2018-07-10T02:54:31.082Z,17.04
2018-07-10T02:55:31.070Z,17.21
2018-07-10T02:56:31.113Z,17.07
2018-07-10T02:57:31.050Z,17.18
2018-07-10T02:58:31.113Z,17.08
2018-07-10T02:59:31.033Z,17.08
2018-07-10T03:00:31.018Z,17.06
2018-07-10T03:01:31.023Z,17.04
2018-07-10T03:02:31.002Z,17.04
2018-07-10T03:03:31.058Z,17.06
2018-07-10T03:04:31.635Z,17.08
2018-07-10T03:05:30.969Z,17.03
2018-07-10T03:06:30.958Z,17.04
2018-07-10T03:07:30.944Z,17.00
2018-07-10T03:08:30.933Z,16.98
2018-07-10T03:09:30.995Z,17.01
2018-07-10T03:10:30.911Z,16.94
2018-07-10T03:11:30.905Z,16.96
2018-07-10T03:12:30.894Z,16.94
2018-07-10T03:13:30.886Z,16.89
2018-07-10T03:14:30.933Z,16.91
2018-07-10T03:15:30.859Z,16.89
2018-07-10T03:16:30.908Z,16.85
2018-07-10T03:17:30.836Z,16.85
2018-07-10T03:18:30.966Z,16.89
2018-07-10T03:19:30.878Z,16.79
2018-07-10T03:20:30.806Z,16.79
2018-07-10T03:21:30.796Z,16.85
2018-07-10T03:22:30.781Z,16.73
2018-07-10T03:23:30.786Z,16.70
2018-07-10T03:24:30.833Z,16.73
2018-07-10T03:25:31.628Z,16.85
2018-07-10T03:26:30.742Z,16.79
2018-07-10T03:27:30.746Z,16.82
2018-07-10T03:28:30.718Z,16.73
2018-07-10T03:29:30.823Z,16.66
2018-07-10T03:30:30.709Z,16.75
2018-07-10T03:31:30.695Z,16.75
2018-07-10T03:32:30.678Z,16.68
2018-07-10T03:33:30.664Z,16.68
2018-07-10T03:34:30.723Z,16.78
2018-07-10T03:35:30.646Z,16.71
2018-07-10T03:36:30.642Z,16.76
2018-07-10T03:37:30.621Z,16.67
2018-07-10T03:38:30.609Z,16.70
2018-07-10T03:39:31.624Z,16.66
2018-07-10T03:40:30.595Z,16.58
2018-07-10T03:41:30.627Z,16.60
2018-07-10T03:42:30.570Z,16.67
2018-07-10T03:43:30.559Z,16.60
2018-07-10T03:44:30.615Z,16.60
2018-07-10T03:45:30.590Z,16.57
2018-07-10T03:46:31.134Z,16.53
2018-07-10T03:47:30.529Z,16.58
2018-07-10T03:48:30.507Z,16.63
2018-07-10T03:49:30.565Z,16.53
2018-07-10T03:50:30.485Z,16.57
2018-07-10T03:51:30.474Z,16.60
2018-07-10T03:52:30.463Z,16.57
2018-07-10T03:53:30.455Z,16.58
2018-07-10T03:54:30.504Z,16.61
2018-07-10T03:55:30.430Z,16.57
2018-07-10T03:56:30.416Z,16.57
2018-07-10T03:57:30.469Z,16.58
2018-07-10T03:58:30.394Z,16.67
2018-07-10T03:59:30.456Z,16.56
2018-07-10T04:00:30.380Z,16.58
2018-07-10T04:01:30.408Z,16.60
2018-07-10T04:02:30.356Z,16.56
2018-07-10T04:03:30.345Z,16.57
2018-07-10T04:04:30.414Z,16.57
2018-07-10T04:05:30.320Z,16.61
2018-07-10T04:06:30.309Z,16.56
2018-07-10T04:07:30.297Z,16.57
2018-07-10T04:08:45.054Z,16.64
2018-07-10T04:09:30.419Z,16.68
2018-07-10T04:10:30.267Z,16.66
2018-07-10T04:11:30.312Z,16.67
2018-07-10T04:12:30.268Z,16.70
2018-07-10T04:13:30.255Z,16.71
2018-07-10T04:14:30.299Z,16.67
2018-07-10T04:15:30.211Z,16.66
2018-07-10T04:16:30.212Z,16.73
2018-07-10T04:17:30.192Z,16.64
2018-07-10T04:18:30.181Z,16.73
2018-07-10T04:19:30.739Z,16.63
2018-07-10T04:20:30.160Z,16.61
2018-07-10T04:21:30.151Z,16.73
2018-07-10T04:22:30.148Z,16.66
2018-07-10T04:23:30.128Z,16.61
2018-07-10T04:24:30.186Z,16.61
2018-07-10T04:25:30.109Z,16.64
2018-07-10T04:26:30.098Z,16.60
2018-07-10T04:27:30.087Z,16.57
2018-07-10T04:28:30.083Z,16.49
2018-07-10T04:29:37.747Z,16.49
2018-07-10T04:30:30.051Z,16.50
2018-07-10T04:31:30.049Z,16.41
2018-07-10T04:32:30.035Z,16.49
2018-07-10T04:33:30.024Z,16.43
2018-07-10T04:34:30.089Z,16.42
2018-07-10T04:35:30.057Z,16.28
2018-07-10T04:36:29.996Z,16.34
2018-07-10T04:37:29.979Z,16.27
2018-07-10T04:38:29.965Z,16.33
2018-07-10T04:39:30.024Z,16.41
2018-07-10T04:40:29.946Z,16.43
2018-07-10T04:41:29.935Z,16.42
2018-07-10T04:42:30.002Z,16.43
2018-07-10T04:43:29.918Z,16.48
2018-07-10T04:44:29.971Z,16.42
2018-07-10T04:45:29.891Z,16.39
2018-07-10T04:46:29.879Z,16.41
2018-07-10T04:47:29.868Z,16.34
2018-07-10T04:48:29.866Z,16.45
2018-07-10T04:49:29.995Z,16.39
2018-07-10T04:50:29.845Z,16.41
2018-07-10T04:51:50.828Z,16.45
2018-07-10T04:52:29.813Z,16.41
2018-07-10T04:53:29.846Z,16.28
2018-07-10T04:54:29.791Z,16.38
2018-07-10T04:55:29.878Z,16.28
2018-07-10T04:56:29.772Z,16.31
2018-07-10T04:57:29.766Z,16.34
2018-07-10T04:58:29.763Z,16.38
2018-07-10T04:59:29.752Z,16.39
2018-07-10T05:00:29.804Z,16.35
2018-07-10T05:01:37.258Z,16.28
2018-07-10T05:02:37.923Z,16.33
2018-07-10T05:03:37.909Z,16.34
2018-07-10T05:06:49.796Z,16.30
2018-07-10T05:07:58.350Z,16.28
2018-07-10T05:08:57.804Z,16.30
2018-07-10T05:09:58.058Z,16.30
2018-07-10T05:11:21.631Z,16.34
2018-07-10T05:11:57.243Z,16.38
2018-07-10T05:12:49.677Z,16.33
2018-07-10T05:13:58.379Z,16.30
2018-07-10T05:14:58.426Z,16.30
2018-07-10T05:15:57.843Z,16.42
2018-07-10T05:16:57.861Z,16.45
2018-07-10T05:17:57.798Z,16.46
2018-07-10T05:18:57.241Z,16.46
2018-07-10T05:19:58.040Z,16.45
2018-07-10T05:20:59.979Z,16.43
2018-07-10T05:23:01.068Z,16.42
2018-07-10T05:25:10.901Z,16.45
2018-07-10T05:28:30.457Z,16.45
2018-07-10T05:29:37.921Z,16.45
2018-07-10T05:31:40.622Z,16.46
2018-07-10T05:32:48.733Z,16.53
2018-07-10T05:33:49.297Z,16.46
2018-07-10T05:34:48.716Z,16.49
2018-07-10T05:35:48.843Z,16.48
2018-07-10T05:39:02.118Z,16.56
2018-07-10T05:43:12.806Z,16.46
2018-07-10T05:44:12.700Z,16.56
2018-07-10T05:45:12.686Z,16.64
2018-07-10T05:46:12.593Z,16.66
2018-07-10T05:47:12.662Z,16.78
2018-07-10T05:48:12.561Z,16.75
2018-07-10T05:49:12.547Z,16.73
2018-07-10T05:50:12.618Z,16.79
2018-07-10T05:51:12.530Z,16.75
2018-07-10T05:52:12.535Z,16.76
2018-07-10T05:53:12.537Z,16.79
2018-07-10T05:54:12.494Z,16.78
2018-07-10T05:55:12.555Z,16.81
2018-07-10T05:56:12.472Z,16.83
2018-07-10T05:57:12.462Z,16.86
2018-07-10T05:58:12.466Z,16.85
2018-07-10T05:59:12.447Z,16.98
2018-07-10T06:00:12.516Z,17.03
2018-07-10T06:01:12.422Z,16.97
2018-07-10T06:02:12.411Z,16.94
2018-07-10T06:03:12.409Z,16.96
2018-07-10T06:04:13.219Z,16.91
2018-07-10T06:05:20.667Z,16.91
2018-07-10T06:06:20.582Z,16.91
2018-07-10T06:07:20.590Z,16.86
2018-07-10T06:08:12.483Z,16.86
2018-07-10T06:09:12.355Z,16.93
2018-07-10T06:10:20.543Z,16.94
2018-07-10T06:11:12.432Z,16.96
2018-07-10T06:12:12.396Z,16.85
2018-07-10T06:13:12.296Z,16.97
2018-07-10T06:14:19.879Z,16.91
2018-07-10T06:15:20.962Z,16.89
2018-07-10T06:16:20.092Z,16.89
2018-07-10T06:17:19.873Z,17.01
2018-07-10T06:18:12.364Z,17.03
2018-07-10T06:19:12.394Z,17.00
2018-07-10T06:20:12.218Z,17.00
2018-07-10T06:21:12.308Z,17.03
2018-07-10T06:22:12.249Z,17.11
2018-07-10T06:23:12.187Z,17.03
2018-07-10T06:24:12.190Z,17.01
2018-07-10T06:25:12.270Z,17.06
2018-07-10T06:26:12.235Z,17.19
2018-07-10T06:27:12.146Z,17.15
2018-07-10T06:28:12.172Z,17.23
2018-07-10T06:29:12.127Z,17.22
2018-07-10T06:30:12.156Z,17.19
2018-07-10T06:31:12.181Z,17.25
2018-07-10T06:32:12.096Z,17.34
2018-07-10T06:33:12.091Z,17.28
2018-07-10T06:34:12.112Z,17.36
2018-07-10T06:35:12.061Z,17.41
2018-07-10T06:36:12.117Z,17.43
2018-07-10T06:37:12.049Z,17.44
2018-07-10T06:38:12.989Z,17.40
2018-07-10T06:39:12.027Z,17.63
2018-07-10T06:40:12.009Z,17.70
2018-07-10T06:41:12.068Z,17.70
2018-07-10T06:42:11.993Z,17.78
2018-07-10T06:43:11.985Z,17.92
2018-07-10T06:44:11.964Z,18.44
2018-07-10T06:45:11.958Z,18.67
2018-07-10T06:46:12.027Z,18.94
2018-07-10T06:47:11.937Z,19.08
2018-07-10T06:48:11.929Z,19.14
2018-07-10T06:49:11.914Z,19.14
2018-07-10T06:50:11.911Z,19.18
2018-07-10T06:51:11.955Z,19.31
2018-07-10T06:52:11.905Z,19.55
2018-07-10T06:53:11.942Z,19.51
2018-07-10T06:54:11.875Z,19.40
2018-07-10T06:55:11.851Z,19.14
2018-07-10T06:56:11.906Z,19.47
2018-07-10T06:57:11.829Z,19.74
2018-07-10T06:58:11.825Z,19.92
2018-07-10T06:59:12.498Z,20.05
2018-07-10T07:00:11.802Z,20.17
2018-07-10T07:01:11.861Z,19.84
2018-07-10T07:02:11.776Z,19.95
2018-07-10T07:03:11.773Z,19.73
2018-07-10T07:04:11.756Z,19.55
2018-07-10T07:05:11.743Z,19.59
2018-07-10T07:06:11.803Z,19.68
2018-07-10T07:07:11.723Z,20.05
2018-07-10T07:08:11.715Z,19.94
2018-07-10T07:09:11.706Z,19.76
2018-07-10T07:10:11.692Z,19.65
2018-07-10T07:11:11.740Z,19.54
2018-07-10T07:12:11.670Z,19.48
2018-07-10T07:13:11.659Z,19.40
2018-07-10T07:14:11.648Z,19.28
2018-07-10T07:15:11.640Z,19.21
2018-07-10T07:16:11.780Z,19.10
2018-07-10T07:17:11.626Z,19.07
2018-07-10T07:18:11.620Z,19.00
2018-07-10T07:19:11.601Z,19.06
2018-07-10T07:20:14.492Z,19.10
2018-07-10T07:21:11.642Z,19.25
2018-07-10T07:22:11.568Z,19.32
2018-07-10T07:23:11.554Z,19.32
2018-07-10T07:24:11.551Z,19.48
2018-07-10T07:25:11.547Z,19.54
2018-07-10T07:26:11.592Z,19.74
2018-07-10T07:27:11.547Z,20.02
2018-07-10T07:28:11.506Z,20.08
2018-07-10T07:29:11.501Z,20.02
2018-07-10T07:30:11.489Z,19.88
2018-07-10T07:31:11.540Z,19.83
2018-07-10T07:32:11.463Z,19.74
2018-07-10T07:33:11.455Z,19.61
2018-07-10T07:34:11.445Z,19.56
2018-07-10T07:35:11.433Z,19.51
2018-07-10T07:36:11.494Z,19.44
2018-07-10T07:37:11.443Z,19.56
2018-07-10T07:38:11.412Z,19.43
2018-07-10T07:39:11.394Z,19.50
2018-07-10T07:40:11.380Z,19.46
2018-07-10T07:41:11.567Z,19.54
2018-07-10T07:42:11.370Z,19.68
2018-07-10T07:43:11.348Z,19.83
2018-07-10T07:44:11.389Z,19.88
2018-07-10T07:45:11.326Z,19.74
2018-07-10T07:46:11.395Z,19.59
2018-07-10T07:47:11.302Z,19.56
2018-07-10T07:48:11.297Z,19.43
2018-07-10T07:49:11.287Z,19.31
2018-07-10T07:50:11.268Z,19.28
2018-07-10T07:51:11.269Z,19.13
2018-07-10T07:52:11.358Z,19.16
2018-07-10T07:53:11.242Z,19.07
2018-07-10T07:54:11.229Z,18.99
2018-07-10T07:55:11.222Z,19.07
2018-07-10T07:56:11.204Z,19.21
2018-07-10T07:57:11.266Z,19.19
2018-07-10T07:58:11.188Z,19.36
2018-07-10T07:59:11.177Z,19.74
2018-07-10T08:00:11.185Z,19.69
2018-07-10T08:01:11.153Z,19.61
2018-07-10T08:02:14.569Z,19.54
2018-07-10T08:03:11.149Z,19.41
2018-07-10T08:04:11.119Z,19.40
2018-07-10T08:05:11.111Z,19.33
2018-07-10T08:06:11.118Z,19.21
2018-07-10T08:07:11.160Z,19.10
2018-07-10T08:08:11.080Z,18.98
2018-07-10T08:09:11.075Z,18.98
2018-07-10T08:10:11.056Z,18.88
2018-07-10T08:11:20.779Z,18.80
2018-07-10T08:12:11.221Z,18.81
2018-07-10T08:13:11.151Z,18.84
2018-07-10T08:14:11.091Z,18.75
2018-07-10T08:15:11.013Z,18.82
2018-07-10T08:16:11.072Z,18.75
2018-07-10T08:17:11.048Z,18.80
2018-07-10T08:18:10.973Z,18.78
2018-07-10T08:19:11.011Z,18.73
2018-07-10T08:20:10.958Z,18.70
2018-07-10T08:21:10.945Z,18.58
2018-07-10T08:22:11.006Z,18.50
2018-07-10T08:23:12.529Z,18.57
2018-07-10T08:24:10.912Z,18.54
2018-07-10T08:25:10.904Z,18.52
2018-07-10T08:26:10.898Z,18.58
2018-07-10T08:27:10.947Z,18.67
2018-07-10T08:28:10.945Z,18.67
2018-07-10T08:29:10.862Z,18.70
2018-07-10T08:30:10.856Z,18.81
2018-07-10T08:31:10.840Z,18.88
2018-07-10T08:32:10.901Z,18.91
2018-07-10T08:33:10.829Z,19.00
2018-07-10T08:34:10.812Z,19.10
2018-07-10T08:35:10.798Z,19.22
2018-07-10T08:36:10.833Z,19.39
2018-07-10T08:37:10.851Z,19.62
2018-07-10T08:38:10.768Z,20.06
2018-07-10T08:39:10.754Z,20.13
2018-07-10T08:40:10.748Z,20.21
2018-07-10T08:41:10.772Z,20.35
2018-07-10T08:42:10.790Z,20.43
2018-07-10T08:43:10.752Z,20.36
2018-07-10T08:44:11.523Z,20.41
2018-07-10T08:45:10.699Z,20.36
2018-07-10T08:46:10.683Z,20.24
2018-07-10T08:47:10.746Z,20.13
2018-07-10T08:48:10.663Z,20.17
2018-07-10T08:49:10.666Z,20.14
2018-07-10T08:50:10.641Z,20.10
2018-07-10T08:51:10.632Z,20.13
2018-07-10T08:52:10.686Z,19.98
2018-07-10T08:53:10.611Z,19.95
2018-07-10T08:54:10.599Z,19.98
2018-07-10T08:55:10.585Z,19.92
2018-07-10T08:56:10.578Z,19.98
2018-07-10T08:57:10.638Z,19.88
2018-07-10T08:58:10.558Z,19.95
2018-07-10T08:59:10.549Z,20.06
2018-07-10T09:00:10.543Z,20.03
2018-07-10T09:01:10.525Z,20.01
2018-07-10T09:02:10.652Z,20.08
2018-07-10T09:03:10.507Z,20.02
2018-07-10T09:04:10.494Z,20.20
2018-07-10T09:05:15.029Z,20.33
2018-07-10T09:06:10.472Z,20.36
2018-07-10T09:07:11.034Z,20.48
2018-07-10T09:08:10.453Z,20.52
2018-07-10T09:09:17.970Z,20.52
2018-07-10T09:10:10.436Z,20.74
2018-07-10T09:11:10.547Z,20.74
2018-07-10T09:12:10.504Z,20.89
2018-07-10T09:13:10.424Z,20.89
2018-07-10T09:14:10.389Z,20.94
2018-07-10T09:15:10.380Z,20.88
2018-07-10T09:16:19.486Z,20.94
2018-07-10T09:17:10.480Z,20.95
2018-07-10T09:18:10.372Z,20.89
2018-07-10T09:19:10.338Z,21.29
2018-07-10T09:20:10.341Z,22.06
2018-07-10T09:21:10.322Z,22.40
2018-07-10T09:22:10.374Z,22.31
2018-07-10T09:23:10.420Z,23.10
2018-07-10T09:24:10.285Z,23.31
2018-07-10T09:25:10.276Z,23.83
2018-07-10T09:26:10.261Z,24.20
2018-07-10T09:27:10.327Z,24.45
2018-07-10T09:28:10.283Z,25.14
2018-07-10T09:29:10.237Z,25.35
2018-07-10T09:30:10.230Z,24.93
2018-07-10T09:31:10.221Z,24.40
2018-07-10T09:32:10.286Z,24.32
2018-07-10T09:33:10.209Z,24.30
2018-07-10T09:34:10.187Z,24.35
2018-07-10T09:35:10.234Z,24.28
2018-07-10T09:36:10.167Z,24.09
2018-07-10T09:37:11.100Z,23.93
2018-07-10T09:38:10.283Z,23.79
2018-07-10T09:39:10.137Z,23.66
2018-07-10T09:40:10.142Z,23.40
2018-07-10T09:41:10.117Z,23.33
2018-07-10T09:42:10.104Z,23.10
2018-07-10T09:43:10.165Z,23.09
2018-07-10T09:44:10.223Z,22.94
2018-07-10T09:45:10.079Z,22.98
2018-07-10T09:46:10.070Z,22.92
2018-07-10T09:47:10.631Z,22.95
2018-07-10T09:48:10.130Z,22.98
2018-07-10T09:49:10.035Z,22.98
2018-07-10T09:50:10.026Z,22.97
2018-07-10T09:51:10.023Z,22.91
2018-07-10T09:52:10.007Z,22.92
2018-07-10T09:53:10.196Z,22.86
2018-07-10T09:54:09.987Z,22.70
2018-07-10T09:55:09.975Z,22.64
2018-07-10T09:56:09.989Z,22.60
2018-07-10T09:57:09.952Z,22.42
2018-07-10T09:58:18.119Z,22.33
2018-07-10T09:59:18.707Z,22.24
2018-07-10T10:00:17.545Z,22.24
2018-07-10T10:01:17.439Z,22.25
2018-07-10T10:02:09.973Z,22.30
2018-07-10T10:03:09.993Z,22.45
2018-07-10T10:04:09.881Z,22.52
2018-07-10T10:05:18.123Z,22.72
2018-07-10T10:06:18.221Z,22.94
2018-07-10T10:07:17.383Z,23.16
2018-07-10T10:08:17.458Z,23.09
2018-07-10T10:09:19.724Z,23.13
2018-07-10T10:10:09.892Z,22.94
2018-07-10T10:11:09.823Z,22.92
2018-07-10T10:12:09.796Z,22.85
2018-07-10T10:13:09.870Z,22.82
2018-07-10T10:14:09.776Z,22.73
2018-07-10T10:15:09.771Z,22.49
2018-07-10T10:16:09.763Z,22.36
2018-07-10T10:17:09.756Z,22.30
2018-07-10T10:18:09.804Z,22.27
2018-07-10T10:19:09.756Z,22.05
2018-07-10T10:20:09.718Z,21.90
2018-07-10T10:21:09.704Z,21.79
2018-07-10T10:22:09.704Z,21.71
2018-07-10T10:23:09.997Z,21.62
2018-07-10T10:24:09.674Z,21.58
2018-07-10T10:25:09.663Z,21.40
2018-07-10T10:26:09.671Z,21.42
2018-07-10T10:27:09.649Z,21.43
2018-07-10T10:28:09.703Z,21.38
2018-07-10T10:29:09.621Z,21.44
2018-07-10T10:30:10.421Z,21.37
2018-07-10T10:31:09.606Z,21.35
2018-07-10T10:32:09.591Z,21.27
2018-07-10T10:33:09.655Z,21.37
2018-07-10T10:34:09.595Z,21.44
2018-07-10T10:35:09.565Z,21.38
2018-07-10T10:36:09.552Z,21.44
2018-07-10T10:37:09.543Z,21.40
2018-07-10T10:38:09.612Z,21.61
2018-07-10T10:39:09.518Z,21.64
2018-07-10T10:40:09.513Z,21.69
2018-07-10T10:41:09.501Z,21.71
2018-07-10T10:42:09.488Z,21.82
2018-07-10T10:43:09.542Z,21.74
2018-07-10T10:44:09.488Z,21.75
2018-07-10T10:45:09.459Z,21.80
2018-07-10T10:46:09.454Z,21.75
2018-07-10T10:47:09.439Z,21.72
2018-07-10T10:48:09.498Z,21.72
2018-07-10T10:49:09.416Z,21.56
2018-07-10T10:50:09.405Z,21.50
2018-07-10T10:51:09.930Z,21.62
2018-07-10T10:52:09.386Z,21.67
2018-07-10T10:53:09.444Z,21.54
2018-07-10T10:54:17.531Z,21.62
2018-07-10T10:55:09.361Z,21.68
2018-07-10T10:56:09.403Z,21.75
2018-07-10T10:57:09.374Z,21.77
2018-07-10T10:58:09.421Z,21.67
2018-07-10T10:59:09.332Z,21.79
2018-07-10T11:00:09.303Z,21.80
2018-07-10T11:01:09.294Z,21.47
2018-07-10T11:02:09.284Z,21.37
2018-07-10T11:03:09.355Z,21.27
2018-07-10T11:04:09.264Z,21.28
2018-07-10T11:05:09.250Z,21.22
2018-07-10T11:06:09.240Z,21.22
2018-07-10T11:07:09.228Z,21.16
2018-07-10T11:08:09.283Z,21.22
2018-07-10T11:09:09.205Z,21.25
2018-07-10T11:10:09.200Z,21.29
2018-07-10T11:11:09.192Z,21.34
2018-07-10T11:12:09.176Z,21.29
2018-07-10T11:13:09.280Z,21.34
2018-07-10T11:14:09.155Z,21.28
2018-07-10T11:15:09.964Z,21.38
2018-07-10T11:16:09.150Z,21.31
2018-07-10T11:17:09.237Z,21.31
2018-07-10T11:18:09.119Z,21.29
2018-07-10T11:19:09.176Z,21.34
2018-07-10T11:20:09.097Z,21.43
2018-07-10T11:21:10.520Z,21.47
2018-07-10T11:22:09.067Z,21.53
2018-07-10T11:23:09.078Z,21.62
2018-07-10T11:24:09.231Z,21.75
2018-07-10T11:25:09.141Z,21.75
2018-07-10T11:26:09.042Z,21.82
2018-07-10T11:27:09.065Z,21.77
2018-07-10T11:28:09.073Z,21.67
2018-07-10T11:29:10.013Z,21.69
2018-07-10T11:30:08.991Z,21.69
2018-07-10T11:31:08.976Z,21.82
2018-07-10T11:32:09.053Z,21.71
2018-07-10T11:33:09.858Z,21.77
2018-07-10T11:34:09.009Z,21.90
2018-07-10T11:35:08.932Z,21.91
2018-07-10T11:36:09.465Z,21.91
2018-07-10T11:37:09.000Z,21.94
2018-07-10T11:38:08.979Z,21.82
2018-07-10T11:39:09.547Z,21.77
2018-07-10T11:40:08.883Z,21.82
2018-07-10T11:41:08.887Z,21.82
2018-07-10T11:42:08.869Z,21.75
2018-07-10T11:43:08.926Z,21.71
2018-07-10T11:44:09.059Z,21.79
2018-07-10T11:45:08.836Z,21.80
2018-07-10T11:46:08.827Z,21.75
2018-07-10T11:47:08.810Z,21.61
2018-07-10T11:48:08.802Z,21.56
2018-07-10T11:49:08.866Z,21.34
2018-07-10T11:50:08.783Z,21.25
2018-07-10T11:51:08.780Z,21.32
2018-07-10T11:52:08.774Z,21.40
2018-07-10T11:53:08.752Z,21.52
2018-07-10T11:54:08.830Z,21.65
2018-07-10T11:55:08.807Z,21.69
2018-07-10T11:56:08.714Z,21.69
2018-07-10T11:57:09.469Z,21.80
2018-07-10T11:58:08.692Z,21.80
2018-07-10T11:59:08.768Z,21.90
2018-07-10T12:00:08.686Z,21.91
2018-07-10T12:01:08.672Z,21.96
2018-07-10T12:02:08.653Z,21.99
2018-07-10T12:03:08.655Z,21.98
2018-07-10T12:04:08.708Z,21.94
2018-07-10T12:05:08.629Z,21.90
2018-07-10T12:06:08.615Z,21.86
2018-07-10T12:07:08.609Z,21.83
2018-07-10T12:08:08.594Z,21.68
2018-07-10T12:09:08.684Z,21.72
2018-07-10T12:10:08.586Z,21.82
2018-07-10T12:11:08.559Z,21.92
2018-07-10T12:12:08.588Z,22.03
2018-07-10T12:13:08.552Z,22.20
2018-07-10T12:14:08.611Z,22.28
2018-07-10T12:15:08.528Z,22.27
2018-07-10T12:16:08.525Z,22.21
2018-07-10T12:17:08.501Z,22.14
2018-07-10T12:18:11.471Z,22.15
2018-07-10T12:19:08.553Z,21.90
2018-07-10T12:20:08.474Z,21.90
2018-07-10T12:21:08.478Z,21.80
2018-07-10T12:22:08.504Z,21.91
2018-07-10T12:23:08.437Z,21.80
2018-07-10T12:24:08.493Z,21.82
2018-07-10T12:25:08.428Z,21.75
2018-07-10T12:26:08.403Z,21.64
2018-07-10T12:27:08.404Z,21.47
2018-07-10T12:28:08.385Z,21.43
2018-07-10T12:29:08.445Z,21.29
2018-07-10T12:30:08.362Z,21.25
2018-07-10T12:31:08.349Z,21.22
2018-07-10T12:32:08.351Z,21.12
2018-07-10T12:33:08.329Z,21.03
2018-07-10T12:34:08.384Z,20.97
2018-07-10T12:35:08.312Z,20.98
2018-07-10T12:36:08.350Z,20.97
2018-07-10T12:37:08.291Z,21.04
2018-07-10T12:38:08.287Z,20.99
2018-07-10T12:39:08.541Z,20.95
2018-07-10T12:40:08.260Z,20.97
2018-07-10T12:41:08.252Z,20.89
2018-07-10T12:42:08.235Z,20.99
2018-07-10T12:43:08.240Z,20.84
2018-07-10T12:44:08.282Z,20.70
2018-07-10T12:45:08.255Z,20.79
2018-07-10T12:46:08.199Z,20.79
2018-07-10T12:47:08.246Z,20.80
2018-07-10T12:48:08.177Z,20.79
2018-07-10T12:49:08.234Z,20.77
2018-07-10T12:50:08.155Z,20.76
2018-07-10T12:51:09.256Z,20.73
2018-07-10T12:52:08.565Z,20.73
2018-07-10T12:53:08.138Z,20.88
2018-07-10T12:54:08.184Z,20.92
2018-07-10T12:55:08.105Z,20.91
2018-07-10T12:56:08.139Z,20.94
2018-07-10T12:57:08.078Z,20.97
2018-07-10T12:58:08.067Z,20.94
2018-07-10T12:59:08.225Z,21.09
2018-07-10T13:00:09.012Z,21.12
2018-07-10T13:01:08.036Z,21.13
2018-07-10T13:02:08.025Z,21.16
2018-07-10T13:03:08.025Z,21.21
2018-07-10T13:04:08.093Z,21.14
2018-07-10T13:05:07.994Z,21.10
2018-07-10T13:06:08.041Z,20.98
2018-07-10T13:07:07.975Z,20.97